Wallkill, New York
Current Conditions -  °F | °C
As of 11:45 PM on Saturday 22 Nov 2014 (Local Time) from KSWF Reporting Station
Broken Clouds Broken Clouds  
Wind Chill:   Ceiling: 5000
Heat Index:   Visibility: 10mi
Dew Point: -7°   Wind: 8mph
Humidity: 45%   Direction: 250°WSW
Pressure: 30.16"   Gusts: NA
Location:  41.61°N, 74.16°W
Report Text: KSWF 230445Z 25007KT 10SM BKN050 04/M07 A3016
Loading
Personal Weather Stations






























Interactive Weather Map New forecast layout! Learn more

10-Day Weather Forecast

Advertisements
Track Severe Weather on mobile